Time;durP1;ratioP1;P1;durP2;ratioP2;P2;SDS_P1;SDS_P2;PMS_P1;PMS_P2;Temp;Humidity;BMP_temperature;BMP_pressure;BME280_temperature;BME280_humidity;BME280_pressure;Samples;Min_cycle;Max_cycle;Signal;HPM_P1;HPM_P2
2023/08/17 00:00:38;;;;;;;;;;;;;;;24.42;52.22;99462.06;5051815;28;19959;-78
2023/08/17 00:03:03;;;;;;;;;;;;;;;24.40;51.72;99459.63;5053378;28;19940;-78
2023/08/17 00:05:29;;;;;;;;;;;;;;;24.36;51.68;99467.47;5053516;28;19913;-78
2023/08/17 00:07:54;;;;;;;;;;;;;;;24.33;51.83;99461.78;5053099;28;20309;-79
2023/08/17 00:10:20;;;;;;;;;;;;;;;24.28;52.32;99459.91;5053113;28;19912;-79
2023/08/17 00:12:45;;;;;;;;;;;;;;;24.25;52.34;99462.31;5053274;28;20308;-79
2023/08/17 00:15:10;;;;;;;;;;;;;;;24.23;52.15;99467.97;5051826;28;19916;-78
2023/08/17 00:17:36;;;;;;;;;;;;;;;24.20;51.22;99465.00;5053096;28;19916;-78
2023/08/17 00:20:02;;;;;;;;;;;;;;;24.12;51.86;99470.94;5052885;28;19920;-78
2023/08/17 00:22:30;;;;;;;;;;;;;;;24.09;51.86;99466.88;5052964;28;19966;-79
2023/08/17 00:24:55;;;;;;;;;;;;;;;24.11;51.77;99466.63;5053148;28;19916;-78
2023/08/17 00:27:20;;;;;;;;;;;;;;;24.11;52.45;99466.63;5052792;28;20427;-78
2023/08/17 00:29:45;;;;;;;;;;;;;;;23.52;52.44;99375.34;5053013;28;19917;-78
2023/08/17 00:32:11;;;;;;;;;;;;;;;24.15;52.76;99470.41;5051494;28;19919;-78
2023/08/17 00:34:36;;;;;;;;;;;;;;;24.16;51.68;99477.41;5052624;28;19952;-78
2023/08/17 00:37:01;;;;;;;;;;;;;;;24.16;51.94;99463.91;5052588;28;20378;-78
2023/08/17 00:39:26;;;;;;;;;;;;;;;24.20;51.94;99467.69;5052611;28;19912;-78
2023/08/17 00:41:52;;;;;;;;;;;;;;;24.20;52.43;99457.72;5052678;28;20340;-78
2023/08/17 00:44:17;;;;;;;;;;;;;;;24.21;51.49;99466.63;5052625;28;20347;-79
2023/08/17 00:46:43;;;;;;;;;;;;;;;24.20;52.20;99468.50;5051096;28;20363;-78
2023/08/17 00:49:09;;;;;;;;;;;;;;;24.17;51.59;99458.25;5050881;28;19923;-79
2023/08/17 00:51:35;;;;;;;;;;;;;;;24.15;52.39;99460.41;5052146;28;19962;-79
2023/08/17 00:54:01;;;;;;;;;;;;;;;24.18;51.34;99457.19;5052130;28;19912;-78
2023/08/17 00:56:27;;;;;;;;;;;;;;;24.18;51.95;99459.06;5050959;28;19913;-78
2023/08/17 00:58:52;;;;;;;;;;;;;;;24.11;51.83;99453.94;5052412;28;19937;-78
2023/08/17 01:01:19;;;;;;;;;;;;;;;24.09;51.81;99454.22;5069132;28;20058;-78
2023/08/17 01:03:45;;;;;;;;;;;;;;;24.06;52.18;99451.25;5054306;28;20396;-78
2023/08/17 01:06:10;;;;;;;;;;;;;;;24.05;52.32;99453.13;5072358;28;19912;-78
2023/08/17 01:08:36;;;;;;;;;;;;;;;24.02;51.68;99453.66;5072510;28;20363;-77
2023/08/17 01:11:06;;;;;;;;;;;;;;;23.96;52.23;99443.13;5072099;28;19912;-78
2023/08/17 01:13:35;;;;;;;;;;;;;;;23.95;52.28;99446.91;5072399;28;19912;-79
2023/08/17 01:16:02;;;;;;;;;;;;;;;23.94;52.04;99443.41;5071919;28;19948;-78
2023/08/17 01:18:35;;;;;;;;;;;;;;;23.91;52.23;99445.81;5054038;28;19919;-79
2023/08/17 01:21:02;;;;;;;;;;;;;;;23.88;52.26;99440.97;5072338;28;19912;-77
2023/08/17 01:23:27;;;;;;;;;;;;;;;23.89;51.99;99443.41;5054080;28;19916;-78
2023/08/17 01:25:53;;;;;;;;;;;;;;;23.87;51.77;99440.16;5054031;28;20031;-78
2023/08/17 01:28:19;;;;;;;;;;;;;;;23.75;52.63;99439.56;5071894;28;20308;-79
2023/08/17 01:30:53;;;;;;;;;;;;;;;23.69;53.31;99433.34;5053979;28;19919;-77
2023/08/17 01:33:28;;;;;;;;;;;;;;;23.62;53.05;99437.38;5071774;28;19912;-78
2023/08/17 01:35:59;;;;;;;;;;;;;;;23.58;52.94;99441.69;5071779;28;19969;-78
2023/08/17 01:38:25;;;;;;;;;;;;;;;23.59;53.16;99440.63;5053877;28;19912;-78
2023/08/17 01:40:53;;;;;;;;;;;;;;;23.55;53.00;99437.63;5071717;28;19916;-78
2023/08/17 01:43:18;;;;;;;;;;;;;;;23.54;52.93;99440.56;5072079;28;20442;-78
2023/08/17 01:45:44;;;;;;;;;;;;;;;23.51;52.77;99441.91;5053954;28;19912;-78
2023/08/17 01:48:09;;;;;;;;;;;;;;;23.51;52.44;99441.09;5053805;28;19968;-78
2023/08/17 01:50:34;;;;;;;;;;;;;;;23.51;52.29;99451.88;5071964;28;19967;-79
2023/08/17 01:52:59;;;;;;;;;;;;;;;23.51;52.90;99447.31;5071921;28;19916;-78
2023/08/17 01:55:25;;;;;;;;;;;;;;;23.54;52.54;99441.38;5071760;28;20521;-79
2023/08/17 01:57:50;;;;;;;;;;;;;;;23.60;52.56;99440.34;5071881;28;19962;-78
2023/08/17 02:00:15;;;;;;;;;;;;;;;23.65;52.35;99439.56;5053637;28;19925;-79
2023/08/17 02:02:41;;;;;;;;;;;;;;;23.71;52.57;99435.78;5071828;28;19951;-79
2023/08/17 02:05:06;;;;;;;;;;;;;;;23.72;52.15;99434.72;5071767;28;19912;-78
2023/08/17 02:07:32;;;;;;;;;;;;;;;23.72;52.22;99434.72;5053650;28;19947;-78
2023/08/17 02:09:57;;;;;;;;;;;;;;;23.71;52.27;99435.78;5071432;28;19999;-78
2023/08/17 02:12:22;;;;;;;;;;;;;;;23.69;52.47;99427.97;5071666;28;19913;-77
2023/08/17 02:14:47;;;;;;;;;;;;;;;23.68;52.25;99425.53;5053444;28;19919;-79
2023/08/17 02:17:13;;;;;;;;;;;;;;;23.71;52.05;99435.78;5075262;28;20355;-78
2023/08/17 02:19:38;;;;;;;;;;;;;;;23.73;52.22;99430.94;5075228;28;19975;-78
2023/08/17 02:22:04;;;;;;;;;;;;;;;23.76;52.19;99430.41;5057066;28;19917;-79
2023/08/17 02:24:29;;;;;;;;;;;;;;;23.77;51.97;99430.13;5075180;28;19912;-80
2023/08/17 02:26:55;;;;;;;;;;;;;;;23.79;51.86;99426.41;5075230;28;19916;-78
2023/08/17 02:29:20;;;;;;;;;;;;;;;23.83;51.56;99427.47;5075317;28;19924;-78
2023/08/17 02:31:45;;;;;;;;;;;;;;;23.86;51.74;99429.63;5075334;28;20003;-78
2023/08/17 02:34:10;;;;;;;;;;;;;;;23.90;51.26;99433.44;5075019;28;19970;-78
2023/08/17 02:36:36;;;;;;;;;;;;;;;23.92;51.61;99431.25;5074922;28;19912;-77
2023/08/17 02:39:03;;;;;;;;;;;;;;;23.91;51.04;99440.44;5074777;28;19913;-78
2023/08/17 02:41:30;;;;;;;;;;;;;;;23.88;51.37;99439.09;5074875;28;19987;-79
2023/08/17 02:43:55;;;;;;;;;;;;;;;23.92;51.28;99448.25;5074742;28;19912;-77
2023/08/17 02:46:20;;;;;;;;;;;;;;;23.98;50.98;99441.78;5075066;28;19939;-78
2023/08/17 02:48:47;;;;;;;;;;;;;;;24.02;51.10;99436.66;5074520;28;20411;-78
2023/08/17 02:51:12;;;;;;;;;;;;;;;24.01;51.52;99426.97;5074556;28;19912;-78
2023/08/17 02:53:38;;;;;;;;;;;;;;;24.01;50.99;99435.88;5074555;28;19913;-78
2023/08/17 02:56:03;;;;;;;;;;;;;;;24.02;50.93;99437.47;5056561;28;19917;-78
2023/08/17 02:58:28;;;;;;;;;;;;;;;24.02;51.08;99437.47;5074570;28;19912;-78
2023/08/17 03:00:54;;;;;;;;;;;;;;;24.03;50.88;99449.06;5056437;28;19931;-78
2023/08/17 03:03:19;;;;;;;;;;;;;;;24.02;51.28;99444.75;5074474;28;19912;-79
2023/08/17 03:05:44;;;;;;;;;;;;;;;24.04;50.81;99451.50;5074294;28;19983;-77
2023/08/17 03:08:09;;;;;;;;;;;;;;;24.06;51.17;99443.16;5074145;28;19974;-78
2023/08/17 03:10:35;;;;;;;;;;;;;;;24.00;51.14;99445.03;5074240;28;19917;-78
2023/08/17 03:13:00;;;;;;;;;;;;;;;23.96;51.20;99454.72;5074331;28;19944;-78
2023/08/17 03:15:25;;;;;;;;;;;;;;;23.98;51.08;99449.88;5074211;28;19919;-78
2023/08/17 03:17:50;;;;;;;;;;;;;;;24.03;50.83;99459.88;5074073;28;20390;-78
2023/08/17 03:20:16;;;;;;;;;;;;;;;24.04;50.95;99462.28;5056123;28;19943;-77
2023/08/17 03:22:41;;;;;;;;;;;;;;;24.08;50.91;99459.88;5062081;28;19909;-79
2023/08/17 03:25:06;;;;;;;;;;;;;;;24.09;50.83;99456.09;5082656;28;20424;-78
2023/08/17 03:27:32;;;;;;;;;;;;;;;24.07;51.03;99447.47;5072457;28;19905;-78
2023/08/17 03:29:57;;;;;;;;;;;;;;;24.06;50.88;99453.94;5073879;28;20398;-78
2023/08/17 03:32:22;;;;;;;;;;;;;;;24.05;51.25;99453.13;5074100;28;19921;-77
2023/08/17 03:34:48;;;;;;;;;;;;;;;24.07;50.79;99450.16;5056001;28;19920;-76
2023/08/17 03:37:13;;;;;;;;;;;;;;;24.11;50.99;99445.03;5074162;28;19912;-78
2023/08/17 03:39:38;;;;;;;;;;;;;;;24.15;50.98;99449.63;5073913;28;20364;-78
2023/08/17 03:42:03;;;;;;;;;;;;;;;24.17;51.06;99457.44;5074059;28;19964;-78
2023/08/17 03:44:29;;;;;;;;;;;;;;;24.17;50.82;99454.75;5075682;28;19966;-79
2023/08/17 03:46:54;;;;;;;;;;;;;;;24.18;50.90;99459.06;5077749;28;19924;-79
2023/08/17 03:49:19;;;;;;;;;;;;;;;24.19;50.08;99447.19;5074132;28;19917;-78
2023/08/17 03:51:44;;;;;;;;;;;;;;;24.16;50.90;99453.13;5055661;28;20357;-79
2023/08/17 03:54:10;;;;;;;;;;;;;;;24.19;50.45;99460.69;5073322;28;19995;-78
2023/08/17 03:56:35;;;;;;;;;;;;;;;24.17;51.09;99455.56;5073470;28;19918;-78
2023/08/17 03:59:00;;;;;;;;;;;;;;;24.17;50.74;99458.25;5073315;28;19913;-79
2023/08/17 04:01:25;;;;;;;;;;;;;;;24.18;51.39;99453.69;5073224;28;20320;-79
2023/08/17 04:03:51;;;;;;;;;;;;;;;24.17;50.64;99454.75;5073224;28;19974;-78
2023/08/17 04:06:16;;;;;;;;;;;;;;;24.18;50.26;99449.09;5073275;28;20381;-78
2023/08/17 04:08:41;;;;;;;;;;;;;;;24.17;50.64;99460.16;5073108;28;19916;-78
2023/08/17 04:11:06;;;;;;;;;;;;;;;24.21;50.70;99458.53;5073218;28;19916;-78
2023/08/17 04:13:32;;;;;;;;;;;;;;;24.23;50.54;99456.38;5073116;28;19912;-78
2023/08/17 04:15:57;;;;;;;;;;;;;;;24.28;50.50;99459.09;5072981;28;19916;-78
2023/08/17 04:18:23;;;;;;;;;;;;;;;24.31;50.34;99466.66;5073068;28;19920;-79
2023/08/17 04:20:48;;;;;;;;;;;;;;;24.32;50.37;99460.19;5073254;28;19915;-78
2023/08/17 04:23:13;;;;;;;;;;;;;;;24.33;49.90;99457.22;5073188;28;20442;-78
2023/08/17 04:25:38;;;;;;;;;;;;;;;24.34;50.15;99458.84;5072841;28;19912;-78
2023/08/17 04:28:04;;;;;;;;;;;;;;;24.37;49.90;99462.88;5073046;28;19912;-78
2023/08/17 04:30:29;;;;;;;;;;;;;;;24.36;49.71;99466.66;5072881;28;19951;-78
2023/08/17 04:32:55;;;;;;;;;;;;;;;24.36;49.47;99467.47;5072764;28;19956;-78
2023/08/17 04:35:20;;;;;;;;;;;;;;;24.39;49.50;99466.94;5072526;28;19936;-78
2023/08/17 04:37:46;;;;;;;;;;;;;;;24.42;48.78;99462.06;5054306;28;19916;-78
2023/08/17 04:40:12;;;;;;;;;;;;;;;24.38;48.92;99461.78;5054803;28;19940;-76
2023/08/17 04:42:37;;;;;;;;;;;;;;;24.38;48.69;99465.31;5072612;28;19971;-78
2023/08/17 04:45:02;;;;;;;;;;;;;;;24.42;48.87;99457.47;5072527;28;19947;-78
2023/08/17 04:47:28;;;;;;;;;;;;;;;24.47;48.51;99465.56;5073095;28;19982;-78
2023/08/17 04:49:53;;;;;;;;;;;;;;;24.49;48.49;99471.50;5072803;28;19917;-78
2023/08/17 04:52:18;;;;;;;;;;;;;;;24.55;48.18;99467.75;5072292;28;20388;-78
2023/08/17 04:54:44;;;;;;;;;;;;;;;24.59;48.31;99468.84;5072382;28;19916;-78
2023/08/17 04:57:09;;;;;;;;;;;;;;;24.62;48.02;99470.19;5072419;28;19927;-77
2023/08/17 04:59:34;;;;;;;;;;;;;;;24.66;48.08;99476.66;5072082;28;19927;-78
2023/08/17 05:01:59;;;;;;;;;;;;;;;24.65;47.77;99470.44;5072365;28;20314;-78
2023/08/17 05:04:25;;;;;;;;;;;;;;;24.70;48.01;99472.31;5072100;28;20369;-78
2023/08/17 05:06:50;;;;;;;;;;;;;;;24.69;47.49;99473.41;5072342;28;19912;-78
2023/08/17 05:09:15;;;;;;;;;;;;;;;24.78;47.84;99473.66;5054229;28;19970;-78
2023/08/17 05:11:40;;;;;;;;;;;;;;;24.84;47.77;99469.88;5072543;28;19912;-78
2023/08/17 05:14:06;;;;;;;;;;;;;;;24.87;47.71;99475.53;5072327;28;19923;-78
2023/08/17 05:16:31;;;;;;;;;;;;;;;24.93;47.63;99468.22;5072228;28;19912;-78
2023/08/17 05:18:58;;;;;;;;;;;;;;;25.01;47.43;99473.09;5072001;28;19948;-78
2023/08/17 05:21:23;;;;;;;;;;;;;;;25.06;47.66;99473.09;5072439;28;20397;-78
2023/08/17 05:23:48;;;;;;;;;;;;;;;25.10;47.48;99468.75;5071992;28;19916;-78
2023/08/17 05:26:14;;;;;;;;;;;;;;;25.14;47.62;99469.81;5071655;28;19920;-78
2023/08/17 05:28:39;;;;;;;;;;;;;;;25.19;47.73;99466.28;5053608;28;19916;-78
2023/08/17 05:31:05;;;;;;;;;;;;;;;25.21;47.91;99456.00;5068977;28;19917;-78
2023/08/17 05:33:31;;;;;;;;;;;;;;;25.28;47.41;99459.25;5051837;28;19916;-78
2023/08/17 05:35:56;;;;;;;;;;;;;;;25.32;47.66;99463.84;5070991;28;19938;-78
2023/08/17 05:38:21;;;;;;;;;;;;;;;25.38;47.53;99453.81;5071829;28;19916;-78
2023/08/17 05:40:46;;;;;;;;;;;;;;;25.43;47.32;99453.78;5059407;28;19916;-78
2023/08/17 05:43:12;;;;;;;;;;;;;;;25.46;47.50;99449.72;5070201;28;19920;-78
2023/08/17 05:45:37;;;;;;;;;;;;;;;25.52;47.50;99454.00;5053711;28;19971;-78
2023/08/17 05:48:03;;;;;;;;;;;;;;;25.57;47.47;99452.09;5051673;28;19917;-78
2023/08/17 05:50:29;;;;;;;;;;;;;;;25.62;47.25;99457.47;5055995;28;20400;-77
2023/08/17 05:52:54;;;;;;;;;;;;;;;25.67;47.19;99459.38;5075823;28;20382;-77
2023/08/17 05:55:20;;;;;;;;;;;;;;;25.69;47.53;99453.69;5067353;28;19913;-78
2023/08/17 05:57:45;;;;;;;;;;;;;;;25.75;47.37;99456.06;5053375;28;19912;-78
2023/08/17 06:00:12;;;;;;;;;;;;;;;25.79;47.00;99459.03;5071853;28;19928;-78
2023/08/17 06:02:37;;;;;;;;;;;;;;;25.87;46.86;99450.31;5055596;28;19920;-78
2023/08/17 06:05:03;;;;;;;;;;;;;;;25.91;46.96;99456.78;5055806;28;19912;-78
2023/08/17 06:07:28;;;;;;;;;;;;;;;25.94;46.78;99464.34;5038684;28;19923;-76
2023/08/17 06:09:53;;;;;;;;;;;;;;;25.98;46.87;99466.19;5058472;28;19994;-77
2023/08/17 06:12:19;;;;;;;;;;;;;;;26.06;46.81;99461.31;5065192;28;19924;-78
2023/08/17 06:14:44;;;;;;;;;;;;;;;26.12;46.94;99471.81;5061397;28;19916;-78
2023/08/17 06:17:09;;;;;;;;;;;;;;;26.17;46.59;99468.25;5073349;28;19916;-78
2023/08/17 06:19:34;;;;;;;;;;;;;;;26.17;46.59;99471.78;5062111;28;19917;-79
2023/08/17 06:22:00;;;;;;;;;;;;;;;26.25;46.45;99478.50;5079811;28;19923;-79
2023/08/17 06:24:25;;;;;;;;;;;;;;;26.31;46.39;99471.13;5075597;28;19945;-78
2023/08/17 06:26:50;;;;;;;;;;;;;;;26.37;46.11;99478.16;5075477;28;19932;-76
2023/08/17 06:29:15;;;;;;;;;;;;;;;26.39;45.52;99467.84;5075406;28;19969;-76
2023/08/17 06:31:41;;;;;;;;;;;;;;;26.35;45.41;99464.91;5074939;28;19913;-76
2023/08/17 06:34:06;;;;;;;;;;;;;;;26.43;45.61;99474.31;5074946;28;19919;-76
2023/08/17 06:36:32;;;;;;;;;;;;;;;26.48;45.44;99477.78;5075120;28;19951;-78
2023/08/17 06:38:57;;;;;;;;;;;;;;;26.52;45.42;99469.91;5074541;28;20419;-78
2023/08/17 06:41:23;;;;;;;;;;;;;;;26.58;45.39;99469.56;5075543;28;19912;-76
2023/08/17 06:43:49;;;;;;;;;;;;;;;26.61;45.34;99476.31;5084701;28;19940;-77
2023/08/17 06:46:14;;;;;;;;;;;;;;;26.69;45.39;99474.88;5078013;28;19919;-78
2023/08/17 06:48:39;;;;;;;;;;;;;;;26.75;45.05;99471.03;5074524;28;20356;-78
2023/08/17 06:51:05;;;;;;;;;;;;;;;26.83;45.01;99475.84;5074628;28;19913;-77
2023/08/17 06:53:30;;;;;;;;;;;;;;;26.89;44.90;99466.59;5074344;28;19916;-76
2023/08/17 06:55:56;;;;;;;;;;;;;;;26.98;44.72;99473.03;5056573;28;19977;-77
2023/08/17 06:58:21;;;;;;;;;;;;;;;27.05;44.39;99470.78;5074493;28;19913;-78
2023/08/17 07:00:46;;;;;;;;;;;;;;;27.16;44.28;99469.56;5073912;28;19921;-77
2023/08/17 07:03:11;;;;;;;;;;;;;;;27.28;44.59;99468.34;5074312;28;19912;-76
2023/08/17 07:05:37;;;;;;;;;;;;;;;27.34;44.23;99467.19;5074437;28;20305;-78
2023/08/17 07:08:02;;;;;;;;;;;;;;;27.40;44.03;99461.41;5074135;28;19912;-76
2023/08/17 07:10:27;;;;;;;;;;;;;;;27.48;44.13;99468.91;5074394;28;19912;-79
2023/08/17 07:12:53;;;;;;;;;;;;;;;27.56;43.67;99470.19;5056350;28;19920;-78
2023/08/17 07:15:18;;;;;;;;;;;;;;;27.62;43.39;99465.53;5073982;28;19912;-78
2023/08/17 07:17:43;;;;;;;;;;;;;;;27.68;43.12;99465.16;5074082;28;19919;-76
2023/08/17 07:20:09;;;;;;;;;;;;;;;27.74;42.78;99458.56;5056019;28;19912;-78
2023/08/17 07:22:36;;;;;;;;;;;;;;;27.80;42.51;99468.25;5073988;28;19917;-78
2023/08/17 07:25:02;;;;;;;;;;;;;;;27.84;43.12;99465.75;5055777;28;19935;-78
2023/08/17 07:27:27;;;;;;;;;;;;;;;27.85;42.51;99459.22;5073805;28;19999;-79
2023/08/17 07:29:52;;;;;;;;;;;;;;;27.93;43.11;99460.47;5073626;28;19956;-78
2023/08/17 07:32:18;;;;;;;;;;;;;;;27.95;42.62;99459.06;5073584;28;20324;-77
2023/08/17 07:34:43;;;;;;;;;;;;;;;28.01;42.67;99454.38;5073649;28;19985;-77
2023/08/17 07:37:09;;;;;;;;;;;;;;;28.09;42.30;99451.78;5073614;28;19912;-78
2023/08/17 07:39:35;;;;;;;;;;;;;;;28.16;42.45;99446.78;5073503;28;20009;-78
2023/08/17 07:42:00;;;;;;;;;;;;;;;28.23;42.28;99453.75;5073578;28;20417;-78
2023/08/17 07:44:25;;;;;;;;;;;;;;;28.28;42.11;99451.81;5055615;28;19912;-76
2023/08/17 07:46:50;;;;;;;;;;;;;;;28.36;42.06;99455.75;5073365;28;20369;-77
2023/08/17 07:49:16;;;;;;;;;;;;;;;28.44;42.15;99457.81;5055640;28;19920;-77
2023/08/17 07:51:41;;;;;;;;;;;;;;;28.54;41.83;99451.38;5055070;28;19993;-77
2023/08/17 07:54:06;;;;;;;;;;;;;;;28.61;41.86;99449.88;5073452;28;19940;-78
2023/08/17 07:56:32;;;;;;;;;;;;;;;28.68;41.96;99447.59;5055129;28;19960;-78
2023/08/17 07:58:57;;;;;;;;;;;;;;;28.77;40.92;99443.06;5073158;28;19927;-78
2023/08/17 08:01:22;;;;;;;;;;;;;;;28.84;40.67;99439.97;5072843;28;20377;-79
2023/08/17 08:03:50;;;;;;;;;;;;;;;28.93;41.46;99453.69;5072931;28;19913;-78
2023/08/17 08:06:16;;;;;;;;;;;;;;;28.98;40.38;99443.50;5073049;28;19999;-78
2023/08/17 08:08:41;;;;;;;;;;;;;;;29.04;40.49;99445.06;5072885;28;20469;-78
2023/08/17 08:11:06;;;;;;;;;;;;;;;29.14;41.07;99438.59;5072826;28;19912;-78
2023/08/17 08:13:32;;;;;;;;;;;;;;;29.15;40.64;99440.22;5072114;28;19912;-77
2023/08/17 08:16:00;;;;;;;;;;;;;;;29.19;40.45;99441.22;5054987;28;19916;-78
2023/08/17 08:18:26;;;;;;;;;;;;;;;29.23;39.22;99431.34;5072961;28;19944;-76
2023/08/17 08:20:51;;;;;;;;;;;;;;;29.35;39.61;99430.81;5072622;28;19917;-78
2023/08/17 08:23:16;;;;;;;;;;;;;;;29.49;40.04;99431.63;5072401;28;20000;-77
2023/08/17 08:25:41;;;;;;;;;;;;;;;29.63;39.59;99428.88;5054382;28;19912;-78
2023/08/17 08:28:09;;;;;;;;;;;;;;;29.79;39.22;99432.09;5072207;28;19962;-78
2023/08/17 08:30:34;;;;;;;;;;;;;;;29.91;38.68;99429.63;5072553;28;19965;-77
2023/08/17 08:32:59;;;;;;;;;;;;;;;30.07;39.78;99430.91;5054426;28;19912;-78
2023/08/17 08:35:25;;;;;;;;;;;;;;;30.15;39.10;99430.16;5072258;28;20310;-77
2023/08/17 08:37:50;;;;;;;;;;;;;;;30.23;36.79;99431.31;5072435;28;19920;-76
2023/08/17 08:40:20;;;;;;;;;;;;;;;30.29;37.79;99425.44;5072253;28;19916;-77
2023/08/17 08:42:45;;;;;;;;;;;;;;;30.43;37.36;99413.66;5072431;28;20317;-76
2023/08/17 08:45:10;;;;;;;;;;;;;;;30.58;38.14;99405.91;5072169;28;19913;-77
2023/08/17 08:47:41;;;;;;;;;;;;;;;30.70;36.61;99407.28;5072094;28;19938;-77
2023/08/17 08:50:08;;;;;;;;;;;;;;;30.84;36.96;99407.97;5071970;28;19932;-78
2023/08/17 08:52:33;;;;;;;;;;;;;;;30.95;37.08;99415.53;5072062;28;19912;-77
2023/08/17 08:55:01;;;;;;;;;;;;;;;31.09;34.65;99407.25;5054117;28;19913;-78
2023/08/17 08:57:27;;;;;;;;;;;;;;;31.22;36.83;99405.56;5053999;28;20006;-77
2023/08/17 08:59:53;;;;;;;;;;;;;;;31.36;34.91;99394.50;5071885;28;20386;-77
2023/08/17 09:02:18;;;;;;;;;;;;;;;31.52;33.60;99399.19;5072459;28;19919;-77
2023/08/17 09:04:46;;;;;;;;;;;;;;;31.68;34.30;99401.44;5072246;28;19913;-77
2023/08/17 09:07:13;;;;;;;;;;;;;;;31.76;33.94;99392.47;5054884;28;20447;-77
2023/08/17 09:09:38;;;;;;;;;;;;;;;31.90;34.92;99390.38;5072866;28;19962;-77
2023/08/17 09:12:05;;;;;;;;;;;;;;;32.03;32.22;99391.34;5072649;28;19962;-77
2023/08/17 09:14:30;;;;;;;;;;;;;;;32.13;31.52;99386.34;5072982;28;19912;-78
2023/08/17 09:16:58;;;;;;;;;;;;;;;32.26;34.09;99387.31;5073042;28;19916;-77
2023/08/17 09:19:24;;;;;;;;;;;;;;;32.43;32.70;99378.25;5072859;28;20404;-78
2023/08/17 09:21:49;;;;;;;;;;;;;;;32.63;33.20;99382.19;5054771;28;19918;-76
2023/08/17 09:24:14;;;;;;;;;;;;;;;32.75;30.90;99377.66;5055111;28;19912;-78
2023/08/17 09:26:40;;;;;;;;;;;;;;;32.83;28.59;99382.31;5072982;28;19974;-78
2023/08/17 09:29:16;;;;;;;;;;;;;;;32.84;30.60;99375.72;5072146;28;19925;-77
2023/08/17 09:31:41;;;;;;;;;;;;;;;33.05;31.55;99374.97;5054398;28;19942;-77
2023/08/17 09:34:06;;;;;;;;;;;;;;;33.21;30.18;99366.97;5072339;28;19912;-78
2023/08/17 09:36:35;;;;;;;;;;;;;;;33.32;30.97;99365.47;5071804;28;19919;-78
2023/08/17 09:39:01;;;;;;;;;;;;;;;33.45;30.38;99378.94;5072062;28;19912;-78
2023/08/17 09:41:26;;;;;;;;;;;;;;;33.57;29.63;99374.66;5072045;28;19970;-76
2023/08/17 09:43:54;;;;;;;;;;;;;;;33.73;29.79;99370.16;5054053;28;19916;-77
2023/08/17 09:46:19;;;;;;;;;;;;;;;33.87;28.34;99370.69;5054160;28;20317;-77
2023/08/17 09:48:47;;;;;;;;;;;;;;;34.05;27.91;99371.31;5072715;28;19935;-79
2023/08/17 09:51:16;;;;;;;;;;;;;;;34.15;29.57;99378.31;5055194;28;19917;-75
2023/08/17 09:53:42;;;;;;;;;;;;;;;34.25;28.28;99365.00;5071671;28;20466;-78
2023/08/17 09:56:10;;;;;;;;;;;;;;;34.39;29.83;99371.00;5052208;28;19964;-77
2023/08/17 09:58:35;;;;;;;;;;;;;;;34.54;28.20;99364.06;5053573;28;19979;-78
2023/08/17 10:01:03;;;;;;;;;;;;;;;34.63;29.01;99358.47;5071078;28;19929;-78
2023/08/17 10:03:29;;;;;;;;;;;;;;;34.72;29.20;99353.66;5071031;28;19999;-76
2023/08/17 10:05:58;;;;;;;;;;;;;;;34.89;29.11;99371.84;5071235;28;19912;-77
2023/08/17 10:08:25;;;;;;;;;;;;;;;35.01;27.56;99360.91;5053269;28;20411;-77
2023/08/17 10:10:50;;;;;;;;;;;;;;;35.11;28.71;99371.41;5053258;28;19919;-76
2023/08/17 10:13:21;;;;;;;;;;;;;;;35.21;28.02;99372.88;5071180;28;20003;-79
2023/08/17 10:16:03;;;;;;;;;;;;;;;35.34;28.52;99353.31;5071202;28;20381;-78
2023/08/17 10:18:28;;;;;;;;;;;;;;;35.55;26.90;99355.88;5071332;28;19912;-76
2023/08/17 10:21:10;;;;;;;;;;;;;;;35.82;27.45;99361.78;5053294;28;20457;-78
2023/08/17 10:23:35;;;;;;;;;;;;;;;35.93;28.08;99354.63;5071010;28;20377;-78
2023/08/17 10:26:02;;;;;;;;;;;;;;;35.93;26.96;99354.63;5053247;28;19912;-78
2023/08/17 10:28:28;;;;;;;;;;;;;;;36.02;27.38;99351.72;5071113;28;19920;-76
2023/08/17 10:30:53;;;;;;;;;;;;;;;36.11;27.38;99346.84;5053150;28;20442;-76
2023/08/17 10:33:19;;;;;;;;;;;;;;;36.03;27.86;99351.34;5071111;28;19942;-78
2023/08/17 10:35:45;;;;;;;;;;;;;;;36.00;27.79;99343.03;5053049;28;19938;-76
2023/08/17 10:38:10;;;;;;;;;;;;;;;36.03;27.45;99336.81;5074893;28;19920;-77
2023/08/17 10:40:37;;;;;;;;;;;;;;;36.11;27.41;99341.34;5074611;28;20305;-77
2023/08/17 10:43:05;;;;;;;;;;;;;;;36.17;27.08;99345.44;5056890;28;19912;-78
2023/08/17 10:45:34;;;;;;;;;;;;;;;36.20;25.94;99339.22;5056676;28;19912;-78
2023/08/17 10:48:20;;;;;;;;;;;;;;;36.43;26.20;99334.78;5074992;28;19912;-77
2023/08/17 10:50:58;;;;;;;;;;;;;;;36.70;25.70;99326.75;5060455;28;19969;-77
2023/08/17 10:53:23;;;;;;;;;;;;;;;36.81;25.36;99322.31;5074690;28;20408;-78
2023/08/17 10:55:50;;;;;;;;;;;;;;;37.02;26.32;99330.25;5074510;28;19912;-77
2023/08/17 10:58:15;;;;;;;;;;;;;;;37.08;26.11;99326.06;5056442;28;19920;-76
2023/08/17 11:00:44;;;;;;;;;;;;;;;37.15;27.20;99332.53;5074602;28;19920;-75
2023/08/17 11:03:10;;;;;;;;;;;;;;;37.14;26.87;99332.88;5074700;28;19966;-76
2023/08/17 11:05:37;;;;;;;;;;;;;;;37.31;25.93;99321.50;5074601;28;19916;-76
2023/08/17 11:08:04;;;;;;;;;;;;;;;37.47;25.55;99318.69;5074519;28;19942;-78
2023/08/17 11:10:30;;;;;;;;;;;;;;;37.61;26.04;99313.47;5056237;28;19916;-77
2023/08/17 11:12:59;;;;;;;;;;;;;;;37.68;25.95;99313.59;5074309;28;19919;-79
2023/08/17 11:15:25;;;;;;;;;;;;;;;37.66;27.28;99304.91;5074140;28;19923;-78
2023/08/17 11:17:50;;;;;;;;;;;;;;;37.80;25.72;99305.19;5073958;28;19999;-79
2023/08/17 11:20:15;;;;;;;;;;;;;;;37.81;27.10;99301.28;5074009;28;19987;-76
2023/08/17 11:22:40;;;;;;;;;;;;;;;37.91;25.62;99299.91;5073873;28;20356;-77
2023/08/17 11:25:06;;;;;;;;;;;;;;;38.02;26.16;99294.56;5056109;28;19917;-75
2023/08/17 11:27:33;;;;;;;;;;;;;;;37.96;25.63;99288.56;5073616;28;19919;-78
2023/08/17 11:29:58;;;;;;;;;;;;;;;37.95;25.85;99289.72;5052952;28;19928;-79
2023/08/17 11:32:24;;;;;;;;;;;;;;;37.97;26.16;99290.16;5058229;28;19916;-77
2023/08/17 11:34:49;;;;;;;;;;;;;;;37.93;25.50;99300.34;5072185;28;19924;-78
2023/08/17 11:37:15;;;;;;;;;;;;;;;38.07;24.24;99294.28;5071827;28;19917;-79
2023/08/17 11:39:41;;;;;;;;;;;;;;;38.09;24.81;99289.19;5046398;28;20317;-77
2023/08/17 11:42:06;;;;;;;;;;;;;;;38.18;25.34;99281.50;5063214;28;19925;-78
2023/08/17 11:44:32;;;;;;;;;;;;;;;38.44;24.74;99272.44;5049357;28;19951;-78
2023/08/17 11:46:57;;;;;;;;;;;;;;;38.50;24.19;99279.25;5069357;28;19998;-78
2023/08/17 11:49:23;;;;;;;;;;;;;;;38.45;24.30;99277.59;5066199;28;19920;-78
2023/08/17 11:51:49;;;;;;;;;;;;;;;38.12;24.42;99275.47;5065853;28;19978;-78
2023/08/17 11:54:14;;;;;;;;;;;;;;;38.14;26.22;99277.84;5066000;28;19916;-76
2023/08/17 11:56:41;;;;;;;;;;;;;;;38.30;24.42;99272.22;5048010;28;20404;-79
2023/08/17 11:59:13;;;;;;;;;;;;;;;38.49;24.32;99263.84;5067123;28;19917;-77
2023/08/17 12:01:39;;;;;;;;;;;;;;;38.54;25.16;99259.97;5060418;28;19928;-77
2023/08/17 12:04:05;;;;;;;;;;;;;;;38.75;25.00;99263.09;5065806;28;20313;-77
2023/08/17 12:06:33;;;;;;;;;;;;;;;38.94;24.68;99271.25;5054498;28;19916;-76
2023/08/17 12:08:58;;;;;;;;;;;;;;;38.74;24.44;99267.03;5064334;28;19921;-76
2023/08/17 12:11:24;;;;;;;;;;;;;;;38.62;24.86;99267.22;5056646;28;19916;-77
2023/08/17 12:13:52;;;;;;;;;;;;;;;38.74;25.96;99259.53;5061023;28;20460;-77
2023/08/17 12:16:18;;;;;;;;;;;;;;;38.69;25.27;99262.63;5072894;28;19912;-77
2023/08/17 12:18:45;;;;;;;;;;;;;;;38.83;23.46;99262.03;5052104;28;20053;-77
2023/08/17 12:21:10;;;;;;;;;;;;;;;38.73;24.40;99262.69;5070865;28;19917;-77
2023/08/17 12:23:35;;;;;;;;;;;;;;;38.70;24.80;99239.38;5048017;28;19916;-76
2023/08/17 12:26:01;;;;;;;;;;;;;;;38.91;23.88;99249.91;5057672;28;20295;-78
2023/08/17 12:28:26;;;;;;;;;;;;;;;38.98;23.92;99246.44;5062357;28;19942;-76
2023/08/17 12:30:58;;;;;;;;;;;;;;;38.87;24.30;99256.56;5036547;28;19917;-76
2023/08/17 12:33:23;;;;;;;;;;;;;;;38.43;23.55;99251.53;5054252;28;20345;-75
2023/08/17 12:35:48;;;;;;;;;;;;;;;38.16;24.56;99242.47;5039278;28;19917;-78
2023/08/17 12:38:14;;;;;;;;;;;;;;;38.28;25.19;99246.97;5065967;28;20011;-78
2023/08/17 12:40:39;;;;;;;;;;;;;;;38.34;24.81;99238.00;5067837;28;19938;-77